createdAt,value
2019-03-24T02:03:11.231Z,40.97
2019-03-24T02:05:42.683Z,32.83
2019-03-24T02:08:15.265Z,31.63
2019-03-24T02:10:46.420Z,31.73
2019-03-24T02:13:17.950Z,28.33
2019-03-24T02:15:50.124Z,24.07
2019-03-24T02:18:21.996Z,28.90
2019-03-24T02:20:53.521Z,30.33
2019-03-24T02:23:25.688Z,24.37
2019-03-24T02:25:57.759Z,28.87
2019-03-24T02:28:30.006Z,27.83
2019-03-24T02:31:02.710Z,29.20
2019-03-24T02:33:52.089Z,30.63
2019-03-24T02:36:31.250Z,30.07
2019-03-24T02:39:07.214Z,28.20
2019-03-24T02:41:41.534Z,30.40
2019-03-24T02:44:17.746Z,28.23
2019-03-24T02:46:56.237Z,25.27
2019-03-24T02:49:31.132Z,27.87
2019-03-24T02:52:06.842Z,28.93
2019-03-24T02:54:42.315Z,28.07
2019-03-24T02:57:17.320Z,28.27
2019-03-24T03:00:02.313Z,30.30
2019-03-24T03:02:38.940Z,26.87
2019-03-24T03:05:14.369Z,27.63
2019-03-24T03:07:46.368Z,25.73
2019-03-24T03:10:20.968Z,25.03
2019-03-24T03:12:55.035Z,26.57
2019-03-24T03:15:29.485Z,27.03
2019-03-24T03:18:01.922Z,24.77
2019-03-24T03:20:35.999Z,26.23
2019-03-24T03:23:08.362Z,30.73
2019-03-24T03:25:40.433Z,26.40
2019-03-24T03:28:11.583Z,23.50
2019-03-24T03:30:42.753Z,28.00
2019-03-24T03:33:14.501Z,26.03
2019-03-24T03:35:46.468Z,21.37
2019-03-24T03:38:18.347Z,23.13
2019-03-24T03:40:49.507Z,25.27
2019-03-24T03:43:28.398Z,27.80
2019-03-24T03:46:00.779Z,33.53
2019-03-24T03:48:32.327Z,27.83
2019-03-24T03:51:04.278Z,26.30
2019-03-24T03:53:36.263Z,24.13
2019-03-24T03:56:07.693Z,29.40
2019-03-24T03:58:40.268Z,29.63
2019-03-24T04:01:12.829Z,25.17
2019-03-24T04:03:44.279Z,28.60
2019-03-24T04:06:16.673Z,31.50
2019-03-24T04:08:48.127Z,29.10
2019-03-24T04:11:20.094Z,29.17
2019-03-24T04:13:52.242Z,25.57
2019-03-24T04:16:24.218Z,26.43
2019-03-24T04:18:56.470Z,28.67
2019-03-24T04:21:27.919Z,29.83
2019-03-24T04:23:59.958Z,28.67
2019-03-24T04:26:31.738Z,27.80
2019-03-24T04:29:03.915Z,30.97
2019-03-24T04:31:35.423Z,28.73
2019-03-24T04:34:07.573Z,30.53
2019-03-24T04:36:40.261Z,27.20
2019-03-24T04:39:11.379Z,31.13
2019-03-24T04:41:43.571Z,27.30
2019-03-24T04:44:19.337Z,27.57
2019-03-24T04:46:52.056Z,28.63
2019-03-24T04:49:24.234Z,28.27
2019-03-24T04:51:57.355Z,27.93
2019-03-24T04:54:29.774Z,27.80
2019-03-24T04:57:01.747Z,28.20
2019-03-24T04:59:41.077Z,30.30
2019-03-24T05:02:12.826Z,29.03
2019-03-24T05:04:44.314Z,28.43
2019-03-24T05:07:15.454Z,31.00
2019-03-24T05:09:47.180Z,29.27
2019-03-24T05:12:18.597Z,28.67
2019-03-24T05:14:50.796Z,31.97
2019-03-24T05:17:27.062Z,29.13
2019-03-24T05:19:55.476Z,29.43
2019-03-24T05:22:27.633Z,32.33
2019-03-24T05:24:59.057Z,31.33
2019-03-24T05:27:30.934Z,26.93
2019-03-24T05:30:02.694Z,25.37
2019-03-24T05:32:34.544Z,35.37
2019-03-24T05:35:06.603Z,28.33
2019-03-24T05:37:38.470Z,26.97
2019-03-24T05:40:14.452Z,32.17
2019-03-24T05:42:46.277Z,27.93
2019-03-24T05:45:17.386Z,32.63
2019-03-24T05:47:49.599Z,30.33
2019-03-24T05:50:21.075Z,29.47
2019-03-24T05:52:52.497Z,28.40
2019-03-24T05:55:24.354Z,32.83
2019-03-24T05:57:56.211Z,31.70
2019-03-24T06:00:27.668Z,29.40
2019-03-24T06:02:59.730Z,35.13
2019-03-24T06:05:30.852Z,31.77
2019-03-24T06:08:02.771Z,31.23
2019-03-24T06:10:34.292Z,29.77
2019-03-24T06:13:06.441Z,30.07
2019-03-24T06:15:39.238Z,33.00
2019-03-24T06:18:12.197Z,27.57
2019-03-24T06:20:43.654Z,32.80
2019-03-24T06:23:15.138Z,32.30
2019-03-24T06:25:47.361Z,37.03
2019-03-24T06:28:18.532Z,34.17
2019-03-24T06:30:49.989Z,32.53
2019-03-24T06:33:28.757Z,31.80
2019-03-24T06:36:00.186Z,29.70
2019-03-24T06:38:31.328Z,28.43
2019-03-24T06:41:03.769Z,28.70
2019-03-24T06:43:35.548Z,30.80
2019-03-24T06:46:06.893Z,27.47
2019-03-24T06:48:38.850Z,35.17
2019-03-24T06:51:11.370Z,29.67
2019-03-24T06:53:43.694Z,29.10
2019-03-24T06:56:15.507Z,31.70
2019-03-24T06:58:47.685Z,30.83
2019-03-24T07:01:19.487Z,31.83
2019-03-24T07:03:51.928Z,29.90
2019-03-24T07:06:23.702Z,31.67
2019-03-24T07:08:55.457Z,31.33
2019-03-24T07:11:27.526Z,34.10
2019-03-24T07:13:58.706Z,30.10
2019-03-24T07:16:30.420Z,30.87
2019-03-24T07:19:02.611Z,33.03
2019-03-24T07:21:35.593Z,31.70
2019-03-24T07:24:12.950Z,29.27
2019-03-24T07:26:45.254Z,30.47
2019-03-24T07:29:19.592Z,32.47
2019-03-24T07:31:51.834Z,29.10
2019-03-24T07:34:36.402Z,29.80
2019-03-24T07:37:07.873Z,29.40
2019-03-24T07:39:44.732Z,31.80
2019-03-24T07:42:16.864Z,31.50
2019-03-24T07:44:48.952Z,29.90
2019-03-24T07:47:20.493Z,32.20
2019-03-24T07:49:52.881Z,28.67
2019-03-24T07:52:24.606Z,34.00
2019-03-24T07:54:56.839Z,31.90
2019-03-24T07:57:28.837Z,32.60
2019-03-24T08:00:01.108Z,28.93
2019-03-24T08:02:53.469Z,31.73
2019-03-24T08:05:24.971Z,28.60
2019-03-24T08:07:56.633Z,30.87
2019-03-24T08:10:28.044Z,30.43
2019-03-24T08:12:59.907Z,31.63
2019-03-24T08:15:31.761Z,31.57
2019-03-24T08:18:03.513Z,28.27
2019-03-24T08:20:35.360Z,31.37
2019-03-24T08:23:06.874Z,45.40
2019-03-24T08:25:38.672Z,35.57
2019-03-24T08:28:10.555Z,29.27
2019-03-24T08:30:42.397Z,31.70
2019-03-24T08:33:14.132Z,31.33
2019-03-24T08:35:45.629Z,33.03
2019-03-24T08:38:17.468Z,29.90
2019-03-24T08:40:49.731Z,31.47
2019-03-24T08:43:40.215Z,31.50
2019-03-24T08:46:17.064Z,30.70
2019-03-24T08:48:48.884Z,34.07
2019-03-24T08:51:39.669Z,33.27
2019-03-24T08:54:19.657Z,35.60
2019-03-24T08:56:51.218Z,34.17
2019-03-24T08:59:29.372Z,31.73
2019-03-24T09:02:06.689Z,33.33
2019-03-24T09:04:41.066Z,36.27
2019-03-24T09:07:12.575Z,38.33
2019-03-24T09:09:43.687Z,37.93
2019-03-24T09:12:21.249Z,35.43
2019-03-24T09:14:53.043Z,35.70
2019-03-24T09:17:25.475Z,35.00
2019-03-24T09:19:57.552Z,35.37
2019-03-24T09:22:29.759Z,37.47
2019-03-24T09:25:01.199Z,32.10
2019-03-24T09:27:33.214Z,32.10
2019-03-24T09:30:26.208Z,35.10
2019-03-24T09:32:58.502Z,32.60
2019-03-24T09:35:36.686Z,32.70
2019-03-24T09:38:08.390Z,36.60
2019-03-24T09:40:41.121Z,34.43
2019-03-24T09:43:15.113Z,32.07
2019-03-24T09:45:47.993Z,32.67
2019-03-24T09:48:33.113Z,32.30
2019-03-24T09:51:04.234Z,33.73
2019-03-24T09:53:35.828Z,33.23
2019-03-24T09:56:07.845Z,34.43
2019-03-24T09:58:39.708Z,33.77
2019-03-24T10:01:12.455Z,33.60
2019-03-24T10:03:54.207Z,33.33
2019-03-24T10:06:27.193Z,36.20
2019-03-24T10:09:04.489Z,37.57
2019-03-24T10:11:35.622Z,37.10
2019-03-24T10:14:08.194Z,38.90
2019-03-24T10:16:39.935Z,36.00
2019-03-24T10:19:14.168Z,36.90
2019-03-24T10:21:45.780Z,42.03
2019-03-24T10:24:17.592Z,38.23
2019-03-24T10:27:12.180Z,36.33
2019-03-24T10:29:43.931Z,36.80
2019-03-24T10:32:15.386Z,39.27
2019-03-24T10:34:47.451Z,37.53
2019-03-24T10:37:19.312Z,44.33
2019-03-24T10:39:51.663Z,38.95
2019-03-24T10:42:23.728Z,41.00
2019-03-24T10:44:55.488Z,36.05
2019-03-24T10:47:27.261Z,39.85
2019-03-24T10:49:58.725Z,39.95
2019-03-24T10:52:31.063Z,41.55
2019-03-24T10:55:02.919Z,42.33
2019-03-24T10:57:35.199Z,42.70
2019-03-24T11:00:07.123Z,42.03
2019-03-24T11:02:39.294Z,40.20
2019-03-24T11:05:11.077Z,36.83
2019-03-24T11:07:42.965Z,39.18
2019-03-24T11:10:14.739Z,34.10
2019-03-24T11:12:46.172Z,36.88
2019-03-24T11:15:17.609Z,37.23
2019-03-24T11:17:49.051Z,34.38
2019-03-24T11:20:20.531Z,37.83
2019-03-24T11:22:53.081Z,36.50
2019-03-24T11:25:24.531Z,35.23
2019-03-24T11:27:57.211Z,31.40
2019-03-24T11:30:29.176Z,35.33
2019-03-24T11:33:00.952Z,35.92
2019-03-24T11:35:32.688Z,33.63
2019-03-24T11:38:04.521Z,36.23
2019-03-24T11:40:36.307Z,36.05
2019-03-24T11:43:07.454Z,32.78
2019-03-24T11:45:39.623Z,38.50
2019-03-24T11:48:11.860Z,32.40
2019-03-24T11:50:43.711Z,34.33
2019-03-24T11:53:15.603Z,34.95
2019-03-24T11:55:47.079Z,32.90
2019-03-24T11:58:19.238Z,37.20
2019-03-24T12:00:50.982Z,35.00
2019-03-24T12:03:22.475Z,34.08
2019-03-24T12:05:54.555Z,32.70
2019-03-24T12:08:26.183Z,35.75
2019-03-24T12:10:57.607Z,30.65
2019-03-24T12:13:29.479Z,30.43
2019-03-24T12:16:01.591Z,34.08
2019-03-24T12:18:33.511Z,32.73
2019-03-24T12:22:03.333Z,35.95
2019-03-24T12:24:36.197Z,32.42
2019-03-24T12:27:07.755Z,36.30
2019-03-24T12:29:39.255Z,33.02
2019-03-24T12:32:12.007Z,36.58
2019-03-24T12:34:43.810Z,36.05
2019-03-24T12:37:15.587Z,33.02
2019-03-24T12:39:46.997Z,38.53
2019-03-24T12:42:18.703Z,37.38
2019-03-24T12:44:50.567Z,39.00
2019-03-24T12:47:22.489Z,38.67
2019-03-24T12:49:54.297Z,31.55
2019-03-24T12:52:26.702Z,32.08
2019-03-24T12:54:58.974Z,35.88
2019-03-24T12:57:31.107Z,33.25
2019-03-24T13:00:02.624Z,33.10
2019-03-24T13:02:34.772Z,32.60
2019-03-24T13:05:08.095Z,34.15
2019-03-24T13:07:39.240Z,34.03
2019-03-24T13:10:11.352Z,33.40
2019-03-24T13:12:42.765Z,31.50
2019-03-24T13:15:15.120Z,33.98
2019-03-24T13:17:47.451Z,30.55
2019-03-24T13:20:26.802Z,30.35
2019-03-24T13:22:52.089Z,32.98
2019-03-24T13:25:23.521Z,30.50
2019-03-24T13:27:54.663Z,33.13
2019-03-24T13:30:26.816Z,29.92
2019-03-24T13:32:59.010Z,29.85
2019-03-24T13:35:30.985Z,30.23
2019-03-24T13:38:03.114Z,27.62
2019-03-24T13:40:34.584Z,29.37
2019-03-24T13:43:06.415Z,29.00
2019-03-24T13:45:38.193Z,31.27
2019-03-24T13:48:10.035Z,32.30
2019-03-24T13:50:41.919Z,31.68
2019-03-24T13:53:13.346Z,39.83
2019-03-24T13:55:45.252Z,32.98
2019-03-24T13:58:16.752Z,34.23
2019-03-24T14:00:48.582Z,33.20
2019-03-24T14:03:20.075Z,32.00
2019-03-24T14:05:51.615Z,30.60
2019-03-24T14:08:23.717Z,30.25
2019-03-24T14:10:55.955Z,30.72
2019-03-24T14:13:27.434Z,28.17
2019-03-24T14:15:59.078Z,29.82
2019-03-24T14:18:30.510Z,27.82
2019-03-24T14:21:19.206Z,32.48
2019-03-24T14:23:51.342Z,28.25
2019-03-24T14:26:23.191Z,27.42
2019-03-24T14:28:55.162Z,24.23
2019-03-24T14:31:27.361Z,27.60
2019-03-24T14:33:58.709Z,27.13
2019-03-24T14:36:30.481Z,32.00
2019-03-24T14:39:02.730Z,24.97
2019-03-24T14:41:34.990Z,24.63
2019-03-24T14:44:06.835Z,26.43
2019-03-24T14:46:38.829Z,24.60
2019-03-24T14:49:10.257Z,26.27
2019-03-24T14:51:42.530Z,27.33
2019-03-24T14:54:14.390Z,28.07
2019-03-24T14:56:47.883Z,29.57
2019-03-24T14:59:20.152Z,20.27
2019-03-24T15:01:52.334Z,22.03
2019-03-24T15:04:24.783Z,22.13
2019-03-24T15:06:56.373Z,20.27
2019-03-24T15:09:28.193Z,25.07
2019-03-24T15:12:00.393Z,19.33
2019-03-24T15:14:32.660Z,21.30
2019-03-24T15:17:04.212Z,19.97
2019-03-24T15:19:36.449Z,17.03
2019-03-24T15:22:08.106Z,17.53
2019-03-24T15:24:40.430Z,17.77
2019-03-24T15:27:11.827Z,18.23
2019-03-24T15:29:43.561Z,17.20
2019-03-24T15:32:15.345Z,17.05
2019-03-24T15:34:47.737Z,18.42
2019-03-24T15:37:20.296Z,20.07
2019-03-24T15:40:08.612Z,17.93
2019-03-24T15:42:40.139Z,15.68
2019-03-24T15:45:12.153Z,16.73
2019-03-24T15:47:44.048Z,19.20
2019-03-24T15:50:17.407Z,49.65
2019-03-24T15:52:49.308Z,20.62
2019-03-24T15:55:23.287Z,29.72
2019-03-24T15:57:55.622Z,20.50
2019-03-24T16:00:48.636Z,17.70
2019-03-24T16:03:20.593Z,18.37
2019-03-24T16:05:52.470Z,17.20
2019-03-24T16:08:24.492Z,16.65
2019-03-24T16:10:55.735Z,16.35
2019-03-24T16:13:27.872Z,18.77
2019-03-24T16:15:59.827Z,17.77
2019-03-24T16:18:30.945Z,18.12
2019-03-24T16:21:02.774Z,20.40
2019-03-24T16:23:34.563Z,23.33
2019-03-24T16:26:06.492Z,20.50
2019-03-24T16:28:37.949Z,16.93
2019-03-24T16:31:09.904Z,18.80
2019-03-24T16:33:41.923Z,16.80
2019-03-24T16:36:16.466Z,17.83
2019-03-24T16:38:49.329Z,18.90
2019-03-24T16:41:21.679Z,17.60
2019-03-24T16:43:54.054Z,17.37
2019-03-24T16:46:26.289Z,35.23
2019-03-24T16:48:57.504Z,19.57
2019-03-24T16:51:38.192Z,15.57
2019-03-24T16:54:01.934Z,14.07
2019-03-24T16:56:34.147Z,15.27
2019-03-24T16:59:06.725Z,13.97
2019-03-24T17:01:38.985Z,15.87
2019-03-24T17:04:11.584Z,14.70
2019-03-24T17:06:44.201Z,14.47
2019-03-24T17:09:16.330Z,18.37
2019-03-24T17:11:48.606Z,19.10
2019-03-24T17:14:20.860Z,20.57
2019-03-24T17:16:53.322Z,22.30
2019-03-24T17:19:26.483Z,23.67
2019-03-24T17:21:59.564Z,22.47
2019-03-24T17:24:32.146Z,24.73
2019-03-24T17:27:04.223Z,22.97
2019-03-24T17:29:36.110Z,25.27
2019-03-24T17:32:07.265Z,22.67
2019-03-24T17:34:39.270Z,26.13
2019-03-24T17:37:11.686Z,26.07
2019-03-24T17:39:44.158Z,22.50
2019-03-24T17:42:16.609Z,23.03
2019-03-24T17:44:49.139Z,27.70
2019-03-24T17:47:22.295Z,23.90
2019-03-24T17:49:53.446Z,23.83
2019-03-24T17:52:25.752Z,24.13
2019-03-24T17:55:03.884Z,23.17
2019-03-24T17:57:42.189Z,24.73
2019-03-24T18:00:15.724Z,24.77
2019-03-24T18:02:48.205Z,21.87
2019-03-24T18:05:40.519Z,24.73
2019-03-24T18:08:12.271Z,24.63
2019-03-24T18:10:43.759Z,28.17
2019-03-24T18:13:15.877Z,22.60
2019-03-24T18:15:50.255Z,26.77
2019-03-24T18:18:22.064Z,21.73
2019-03-24T18:20:54.429Z,26.10
2019-03-24T18:23:40.177Z,22.83
2019-03-24T18:26:13.363Z,25.63
2019-03-24T18:28:45.625Z,27.10
2019-03-24T18:31:17.360Z,28.47
2019-03-24T18:33:50.369Z,25.67
2019-03-24T18:36:22.957Z,26.13
2019-03-24T18:38:55.568Z,27.87
2019-03-24T18:41:27.086Z,24.53
2019-03-24T18:43:59.368Z,29.17
2019-03-24T18:46:31.929Z,27.90
2019-03-24T18:49:03.455Z,29.07
2019-03-24T18:51:34.605Z,28.57
2019-03-24T18:54:06.472Z,25.13
2019-03-24T18:56:38.950Z,28.53
2019-03-24T18:59:10.369Z,37.43
2019-03-24T19:01:52.542Z,33.90
2019-03-24T19:04:25.048Z,29.90
2019-03-24T19:06:56.523Z,29.90
2019-03-24T19:09:30.433Z,35.13
2019-03-24T19:12:03.139Z,38.90
2019-03-24T19:14:34.272Z,33.23
2019-03-24T19:17:06.756Z,37.53
2019-03-24T19:19:37.996Z,38.30
2019-03-24T19:22:10.050Z,43.93
2019-03-24T19:24:45.495Z,40.20
2019-03-24T19:27:17.873Z,41.80
2019-03-24T19:29:50.227Z,38.97
2019-03-24T19:32:27.017Z,38.93
2019-03-24T19:35:05.358Z,38.60
2019-03-24T19:38:15.177Z,40.27
2019-03-24T19:40:53.324Z,37.77
2019-03-24T19:43:24.978Z,34.37
2019-03-24T19:45:58.674Z,42.30
2019-03-24T19:48:31.018Z,39.67
2019-03-24T19:51:03.410Z,37.40
2019-03-24T19:53:40.933Z,37.43
2019-03-24T19:56:17.318Z,37.43
2019-03-24T19:58:49.334Z,38.27
2019-03-24T20:01:38.896Z,38.53
2019-03-24T20:04:11.813Z,39.70
2019-03-24T20:06:48.824Z,39.23
2019-03-24T20:09:27.089Z,41.73
2019-03-24T20:12:05.343Z,38.83
2019-03-24T20:14:43.530Z,35.33
2019-03-24T20:17:22.163Z,40.00
2019-03-24T20:19:57.497Z,38.93
2019-03-24T20:22:28.876Z,38.97
2019-03-24T20:25:00.911Z,39.90
2019-03-24T20:27:32.725Z,39.33
2019-03-24T20:30:07.323Z,36.17
2019-03-24T20:32:41.343Z,36.20
2019-03-24T20:35:15.052Z,40.50
2019-03-24T20:37:48.825Z,35.07
2019-03-24T20:40:27.566Z,36.13
2019-03-24T20:43:01.834Z,32.93
2019-03-24T20:45:33.383Z,29.17
2019-03-24T20:48:05.444Z,35.17
2019-03-24T20:50:40.463Z,35.27
2019-03-24T20:53:18.379Z,35.00
2019-03-24T20:55:50.963Z,33.67
2019-03-24T20:58:22.706Z,29.67
2019-03-24T21:00:53.903Z,34.53
2019-03-24T21:03:26.182Z,36.57
2019-03-24T21:06:00.592Z,33.77
2019-03-24T21:08:32.524Z,37.73
2019-03-24T21:11:03.979Z,39.33
2019-03-24T21:13:35.882Z,36.17
2019-03-24T21:16:07.886Z,34.40
2019-03-24T21:18:40.333Z,34.03
2019-03-24T21:21:12.085Z,34.67
2019-03-24T21:23:44.041Z,38.73
2019-03-24T21:26:15.723Z,33.97
2019-03-24T21:28:47.947Z,31.33
2019-03-24T21:31:19.983Z,33.63
2019-03-24T21:33:52.221Z,38.87
2019-03-24T21:36:24.799Z,40.77
2019-03-24T21:38:57.068Z,33.80
2019-03-24T21:41:29.453Z,36.47
2019-03-24T21:44:15.102Z,36.33
2019-03-24T21:46:49.544Z,36.07
2019-03-24T21:49:21.752Z,35.60
2019-03-24T21:51:53.546Z,34.77
2019-03-24T21:54:25.049Z,34.77
2019-03-24T21:56:56.956Z,32.53
2019-03-24T21:59:29.329Z,32.50
2019-03-24T22:02:01.096Z,34.20
2019-03-24T22:04:33.744Z,34.90
2019-03-24T22:07:05.335Z,32.67
2019-03-24T22:09:38.760Z,29.40
2019-03-24T22:12:10.638Z,33.30
2019-03-24T22:14:42.560Z,33.57
2019-03-24T22:17:14.190Z,34.23
2019-03-24T22:19:47.867Z,33.83
2019-03-24T22:22:19.677Z,35.73
2019-03-24T22:24:53.869Z,44.03
2019-03-24T22:27:26.081Z,34.87
2019-03-24T22:29:58.627Z,37.20
2019-03-24T22:32:30.522Z,31.03
2019-03-24T22:35:03.305Z,30.70
2019-03-24T22:37:36.616Z,29.37
2019-03-24T22:40:09.454Z,38.50
2019-03-24T22:42:41.521Z,31.17
2019-03-24T22:45:14.408Z,31.80
2019-03-24T22:47:46.904Z,31.27
2019-03-24T22:50:18.827Z,33.07
2019-03-24T22:52:50.391Z,32.77
2019-03-24T22:55:21.855Z,29.93
2019-03-24T22:57:53.822Z,33.23
2019-03-24T23:00:42.371Z,32.80
2019-03-24T23:03:14.413Z,32.30
2019-03-24T23:05:52.677Z,29.60
2019-03-24T23:08:24.589Z,27.83
2019-03-24T23:10:56.855Z,31.67
2019-03-24T23:13:29.948Z,29.27
2019-03-24T23:16:01.700Z,35.77
2019-03-24T23:18:33.160Z,30.50
2019-03-24T23:21:18.805Z,32.80
2019-03-24T23:23:51.045Z,30.27
2019-03-24T23:26:23.213Z,29.67
2019-03-24T23:29:07.007Z,34.90
2019-03-24T23:31:41.836Z,34.60
2019-03-24T23:34:18.923Z,32.20
2019-03-24T23:36:50.853Z,33.97
2019-03-24T23:39:22.750Z,30.93
2019-03-24T23:42:14.997Z,33.67
2019-03-24T23:44:46.536Z,27.13
2019-03-24T23:47:19.020Z,30.43
2019-03-24T23:49:50.634Z,28.47
2019-03-24T23:52:21.753Z,29.43
2019-03-24T23:54:53.718Z,35.13
2019-03-24T23:57:26.020Z,33.33
2019-03-24T23:59:58.706Z,39.50
